メインページ
METAR-TAF:

METAR-TAF

空港 :

シウダー・フアレス, メキシコ

緯度: 31-38N, 経度: 106-26W, 海抜: 1171m

現時点の気象観測

当レポートは3時間1分前の03:41(UTC)に作成
東/北東の風 8kt
気温 12°C
湿度 50%
気圧 1023 hPa
視程: 16.1km
高度9000ftの雲はほとんどない
高度12000ftの雲は散在している

METAR: MMCS 210341Z 06008KT 10SM FEW090 SCT120 12/02 A3021 RMK 8/070 CI

時間: 23:42 (06:42 UTC)

予報

当レポートは1時間24分前の05:18(UTC)に作成
予報は21日の 06時(UTC)から 22日の 06時(UTC)まで有効
東/北東の風 5kt
視程: 10km
高度10000ftの雲は散在している
21日の 1800時(UTC)から
の風 12kt
視程: 10km
高度8000ftの雲は散在している
高度25000ftの千切れ雲あり
22日の 0500時(UTC)から
南/南東の風 5kt
視程: 10km
高度25000ftの雲は散在している

TAF: MMCS 210518Z 2106/2206 06005KT P6SM SCT100 FM211800 18012KT P6SM SCT080 BKN250 FM220500 16005KT P6SM SCT250

4,000以上の空港の気象観測と天気予報(METAR報とTAF報)

利用可能な観測所は地図上に黄色い丸と赤い丸で示す。

丸の上にカーソルを重ねると観測所名を参照できる。

次にクリックすると気象観測と天気予報を参照できる。

マップの切り替え:黒色「×」印の緑ボタンをクリックして拡大、「-」印の緑ボタンをクリックして縮小、緑色の三角印をクリックして隣りの地図に切り替え


METAR-TAF: